LRCL - CLUJ NAPOCA / AVRAM IANCU

Compiled: 11:36:26 on 21/04/2018

Latest METAR/SPECI Reports

METAR LRCL 211130Z VRB02KT CAVOK 21/04 Q1020=

Previous reports

METAR LRCL 211100Z VRB03KT CAVOK 21/06 Q1020=
METAR LRCL 211030Z 15003KT CAVOK 20/07 Q1021=
METAR LRCL 211000Z VRB04KT CAVOK 19/06 Q1021=
METAR LRCL 210930Z VRB03KT CAVOK 18/05 Q1022=

Latest TAF report

TAF LRCL 211100Z 2112/2121 VRB04KT CAVOK=

Valid WARNINGS

No valid warnings for LRCL